sensor_id;sensor_type;location;lat;lon;timestamp;P1;durP1;ratioP1;P2;durP2;ratioP2
23129;SDS011;11734;51.046;13.778;2023-10-31T00:02:10;6.03;;;5.43;;
23129;SDS011;11734;51.046;13.778;2023-10-31T00:04:38;7.03;;;5.33;;
23129;SDS011;11734;51.046;13.778;2023-10-31T00:07:05;7.13;;;6.27;;
23129;SDS011;11734;51.046;13.778;2023-10-31T00:09:33;6.40;;;5.80;;
23129;SDS011;11734;51.046;13.778;2023-10-31T00:12:00;8.07;;;6.30;;
23129;SDS011;11734;51.046;13.778;2023-10-31T00:14:27;8.33;;;5.83;;
23129;SDS011;11734;51.046;13.778;2023-10-31T00:17:00;9.80;;;6.20;;
23129;SDS011;11734;51.046;13.778;2023-10-31T00:19:27;8.73;;;6.57;;
23129;SDS011;11734;51.046;13.778;2023-10-31T00:21:55;6.93;;;6.10;;
23129;SDS011;11734;51.046;13.778;2023-10-31T00:24:22;9.13;;;6.37;;
23129;SDS011;11734;51.046;13.778;2023-10-31T00:26:49;7.30;;;6.30;;
23129;SDS011;11734;51.046;13.778;2023-10-31T00:29:16;7.07;;;6.27;;
23129;SDS011;11734;51.046;13.778;2023-10-31T00:31:44;8.70;;;6.10;;
23129;SDS011;11734;51.046;13.778;2023-10-31T00:34:11;7.77;;;6.07;;
23129;SDS011;11734;51.046;13.778;2023-10-31T00:36:39;8.30;;;6.83;;
23129;SDS011;11734;51.046;13.778;2023-10-31T00:39:06;7.17;;;6.47;;
23129;SDS011;11734;51.046;13.778;2023-10-31T00:41:33;8.43;;;6.40;;
23129;SDS011;11734;51.046;13.778;2023-10-31T00:44:01;7.97;;;6.47;;
23129;SDS011;11734;51.046;13.778;2023-10-31T00:46:28;8.53;;;7.00;;
23129;SDS011;11734;51.046;13.778;2023-10-31T00:48:56;6.90;;;6.30;;
23129;SDS011;11734;51.046;13.778;2023-10-31T00:51:23;8.40;;;7.60;;
23129;SDS011;11734;51.046;13.778;2023-10-31T00:53:50;7.67;;;6.57;;
23129;SDS011;11734;51.046;13.778;2023-10-31T00:56:18;7.47;;;6.67;;
23129;SDS011;11734;51.046;13.778;2023-10-31T00:58:45;7.87;;;7.03;;
23129;SDS011;11734;51.046;13.778;2023-10-31T01:01:13;9.40;;;7.30;;
23129;SDS011;11734;51.046;13.778;2023-10-31T01:03:41;8.07;;;7.27;;
23129;SDS011;11734;51.046;13.778;2023-10-31T01:06:09;8.57;;;6.67;;
23129;SDS011;11734;51.046;13.778;2023-10-31T01:08:36;9.50;;;7.47;;
23129;SDS011;11734;51.046;13.778;2023-10-31T01:11:03;8.43;;;7.53;;
23129;SDS011;11734;51.046;13.778;2023-10-31T01:13:32;9.73;;;7.90;;
23129;SDS011;11734;51.046;13.778;2023-10-31T01:15:59;8.00;;;7.13;;
23129;SDS011;11734;51.046;13.778;2023-10-31T01:18:26;10.20;;;7.47;;
23129;SDS011;11734;51.046;13.778;2023-10-31T01:20:54;9.23;;;7.77;;
23129;SDS011;11734;51.046;13.778;2023-10-31T01:23:21;9.23;;;7.70;;
23129;SDS011;11734;51.046;13.778;2023-10-31T01:25:49;8.23;;;7.43;;
23129;SDS011;11734;51.046;13.778;2023-10-31T01:28:16;11.80;;;7.03;;
23129;SDS011;11734;51.046;13.778;2023-10-31T01:30:44;8.57;;;7.77;;
23129;SDS011;11734;51.046;13.778;2023-10-31T01:33:11;8.67;;;7.73;;
23129;SDS011;11734;51.046;13.778;2023-10-31T01:35:39;9.33;;;7.90;;
23129;SDS011;11734;51.046;13.778;2023-10-31T01:38:06;11.37;;;8.07;;
23129;SDS011;11734;51.046;13.778;2023-10-31T01:40:34;9.07;;;8.07;;
23129;SDS011;11734;51.046;13.778;2023-10-31T01:43:01;12.47;;;8.60;;
23129;SDS011;11734;51.046;13.778;2023-10-31T01:45:28;10.93;;;7.80;;
23129;SDS011;11734;51.046;13.778;2023-10-31T01:47:56;10.97;;;7.77;;
23129;SDS011;11734;51.046;13.778;2023-10-31T01:50:24;10.50;;;8.40;;
23129;SDS011;11734;51.046;13.778;2023-10-31T01:52:51;11.97;;;8.60;;
23129;SDS011;11734;51.046;13.778;2023-10-31T01:55:19;9.17;;;7.77;;
23129;SDS011;11734;51.046;13.778;2023-10-31T01:57:48;8.77;;;7.57;;
23129;SDS011;11734;51.046;13.778;2023-10-31T02:00:16;8.60;;;7.50;;
23129;SDS011;11734;51.046;13.778;2023-10-31T02:02:43;10.80;;;8.70;;
23129;SDS011;11734;51.046;13.778;2023-10-31T02:05:11;10.40;;;8.10;;
23129;SDS011;11734;51.046;13.778;2023-10-31T02:07:38;9.23;;;7.90;;
23129;SDS011;11734;51.046;13.778;2023-10-31T02:10:06;10.27;;;8.60;;
23129;SDS011;11734;51.046;13.778;2023-10-31T02:15:01;9.33;;;7.70;;
23129;SDS011;11734;51.046;13.778;2023-10-31T02:17:29;11.10;;;8.20;;
23129;SDS011;11734;51.046;13.778;2023-10-31T02:19:56;11.07;;;8.57;;
23129;SDS011;11734;51.046;13.778;2023-10-31T02:22:24;9.13;;;8.23;;
23129;SDS011;11734;51.046;13.778;2023-10-31T02:24:51;10.87;;;8.30;;
23129;SDS011;11734;51.046;13.778;2023-10-31T02:27:19;10.77;;;8.50;;
23129;SDS011;11734;51.046;13.778;2023-10-31T02:29:46;10.73;;;8.53;;
23129;SDS011;11734;51.046;13.778;2023-10-31T02:32:14;9.33;;;8.37;;
23129;SDS011;11734;51.046;13.778;2023-10-31T02:34:41;9.97;;;8.67;;
23129;SDS011;11734;51.046;13.778;2023-10-31T02:37:09;11.30;;;8.63;;
23129;SDS011;11734;51.046;13.778;2023-10-31T02:39:37;9.63;;;8.63;;
23129;SDS011;11734;51.046;13.778;2023-10-31T02:42:04;10.57;;;8.97;;
23129;SDS011;11734;51.046;13.778;2023-10-31T02:44:31;9.57;;;8.63;;
23129;SDS011;11734;51.046;13.778;2023-10-31T02:46:59;12.30;;;9.10;;
23129;SDS011;11734;51.046;13.778;2023-10-31T02:49:26;12.43;;;9.33;;
23129;SDS011;11734;51.046;13.778;2023-10-31T02:51:53;12.50;;;10.10;;
23129;SDS011;11734;51.046;13.778;2023-10-31T02:54:21;11.50;;;9.33;;
23129;SDS011;11734;51.046;13.778;2023-10-31T02:56:49;13.07;;;9.13;;
23129;SDS011;11734;51.046;13.778;2023-10-31T02:59:16;11.93;;;9.47;;
23129;SDS011;11734;51.046;13.778;2023-10-31T03:01:43;11.60;;;10.43;;
23129;SDS011;11734;51.046;13.778;2023-10-31T03:04:11;13.63;;;10.73;;
23129;SDS011;11734;51.046;13.778;2023-10-31T03:06:38;13.63;;;10.23;;
23129;SDS011;11734;51.046;13.778;2023-10-31T03:09:06;18.20;;;11.10;;
23129;SDS011;11734;51.046;13.778;2023-10-31T03:11:34;14.73;;;11.40;;
23129;SDS011;11734;51.046;13.778;2023-10-31T03:14:01;16.23;;;11.10;;
23129;SDS011;11734;51.046;13.778;2023-10-31T03:16:28;14.57;;;11.40;;
23129;SDS011;11734;51.046;13.778;2023-10-31T03:18:56;15.00;;;11.53;;
23129;SDS011;11734;51.046;13.778;2023-10-31T03:21:23;16.50;;;11.90;;
23129;SDS011;11734;51.046;13.778;2023-10-31T03:23:50;16.90;;;12.53;;
23129;SDS011;11734;51.046;13.778;2023-10-31T03:26:22;17.20;;;12.90;;
23129;SDS011;11734;51.046;13.778;2023-10-31T03:28:49;15.37;;;12.17;;
23129;SDS011;11734;51.046;13.778;2023-10-31T03:31:17;16.13;;;12.97;;
23129;SDS011;11734;51.046;13.778;2023-10-31T03:33:44;17.67;;;12.30;;
23129;SDS011;11734;51.046;13.778;2023-10-31T03:36:11;17.77;;;13.03;;
23129;SDS011;11734;51.046;13.778;2023-10-31T03:38:38;18.33;;;13.73;;
23129;SDS011;11734;51.046;13.778;2023-10-31T03:41:06;18.57;;;13.60;;
23129;SDS011;11734;51.046;13.778;2023-10-31T03:43:33;19.73;;;13.53;;
23129;SDS011;11734;51.046;13.778;2023-10-31T03:46:01;17.93;;;13.43;;
23129;SDS011;11734;51.046;13.778;2023-10-31T03:48:28;18.57;;;13.60;;
23129;SDS011;11734;51.046;13.778;2023-10-31T03:50:55;18.87;;;13.63;;
23129;SDS011;11734;51.046;13.778;2023-10-31T03:53:23;18.97;;;12.87;;
23129;SDS011;11734;51.046;13.778;2023-10-31T03:55:51;16.97;;;12.43;;
23129;SDS011;11734;51.046;13.778;2023-10-31T03:58:18;19.33;;;13.03;;
23129;SDS011;11734;51.046;13.778;2023-10-31T04:00:46;17.87;;;12.37;;
23129;SDS011;11734;51.046;13.778;2023-10-31T04:03:15;15.47;;;11.07;;
23129;SDS011;11734;51.046;13.778;2023-10-31T04:05:43;13.63;;;10.07;;
23129;SDS011;11734;51.046;13.778;2023-10-31T04:08:10;12.30;;;9.20;;
23129;SDS011;11734;51.046;13.778;2023-10-31T04:10:38;12.20;;;9.00;;
23129;SDS011;11734;51.046;13.778;2023-10-31T04:13:05;12.10;;;9.33;;
23129;SDS011;11734;51.046;13.778;2023-10-31T04:15:32;10.83;;;8.13;;
23129;SDS011;11734;51.046;13.778;2023-10-31T04:18:01;10.60;;;7.90;;
23129;SDS011;11734;51.046;13.778;2023-10-31T04:20:30;11.63;;;7.97;;
23129;SDS011;11734;51.046;13.778;2023-10-31T04:22:57;10.27;;;7.87;;
23129;SDS011;11734;51.046;13.778;2023-10-31T04:25:25;9.87;;;7.53;;
23129;SDS011;11734;51.046;13.778;2023-10-31T04:27:55;10.17;;;7.17;;
23129;SDS011;11734;51.046;13.778;2023-10-31T04:30:22;9.77;;;7.30;;
23129;SDS011;11734;51.046;13.778;2023-10-31T04:32:49;9.53;;;7.03;;
23129;SDS011;11734;51.046;13.778;2023-10-31T04:35:17;8.57;;;7.13;;
23129;SDS011;11734;51.046;13.778;2023-10-31T04:37:44;7.77;;;6.70;;
23129;SDS011;11734;51.046;13.778;2023-10-31T04:40:12;9.03;;;7.23;;
23129;SDS011;11734;51.046;13.778;2023-10-31T04:42:39;7.80;;;6.80;;
23129;SDS011;11734;51.046;13.778;2023-10-31T04:45:07;10.23;;;6.57;;
23129;SDS011;11734;51.046;13.778;2023-10-31T04:47:34;8.90;;;6.90;;
23129;SDS011;11734;51.046;13.778;2023-10-31T04:50:02;7.77;;;6.90;;
23129;SDS011;11734;51.046;13.778;2023-10-31T04:52:30;7.80;;;6.20;;
23129;SDS011;11734;51.046;13.778;2023-10-31T04:54:57;7.00;;;6.03;;
23129;SDS011;11734;51.046;13.778;2023-10-31T04:57:24;6.73;;;5.10;;
23129;SDS011;11734;51.046;13.778;2023-10-31T04:59:52;5.63;;;5.03;;
23129;SDS011;11734;51.046;13.778;2023-10-31T05:02:21;5.93;;;4.97;;
23129;SDS011;11734;51.046;13.778;2023-10-31T05:04:51;4.90;;;4.10;;
23129;SDS011;11734;51.046;13.778;2023-10-31T05:07:19;5.27;;;4.00;;
23129;SDS011;11734;51.046;13.778;2023-10-31T05:09:46;5.33;;;4.20;;
23129;SDS011;11734;51.046;13.778;2023-10-31T05:12:13;5.93;;;4.33;;
23129;SDS011;11734;51.046;13.778;2023-10-31T05:14:40;8.27;;;4.30;;
23129;SDS011;11734;51.046;13.778;2023-10-31T05:17:08;4.97;;;4.17;;
23129;SDS011;11734;51.046;13.778;2023-10-31T05:19:35;4.30;;;3.27;;
23129;SDS011;11734;51.046;13.778;2023-10-31T05:22:02;4.17;;;3.43;;
23129;SDS011;11734;51.046;13.778;2023-10-31T05:24:30;3.20;;;2.90;;
23129;SDS011;11734;51.046;13.778;2023-10-31T05:26:58;3.20;;;2.90;;
23129;SDS011;11734;51.046;13.778;2023-10-31T05:29:25;3.93;;;2.67;;
23129;SDS011;11734;51.046;13.778;2023-10-31T05:31:53;3.93;;;2.57;;
23129;SDS011;11734;51.046;13.778;2023-10-31T05:34:20;2.30;;;2.10;;
23129;SDS011;11734;51.046;13.778;2023-10-31T05:36:48;3.20;;;2.57;;
23129;SDS011;11734;51.046;13.778;2023-10-31T05:39:15;2.03;;;1.87;;
23129;SDS011;11734;51.046;13.778;2023-10-31T05:41:42;2.10;;;1.90;;
23129;SDS011;11734;51.046;13.778;2023-10-31T05:44:10;1.97;;;1.80;;
23129;SDS011;11734;51.046;13.778;2023-10-31T05:46:38;3.13;;;1.90;;
23129;SDS011;11734;51.046;13.778;2023-10-31T05:49:06;2.97;;;1.73;;
23129;SDS011;11734;51.046;13.778;2023-10-31T05:51:34;1.87;;;1.73;;
23129;SDS011;11734;51.046;13.778;2023-10-31T05:54:02;3.03;;;1.90;;
23129;SDS011;11734;51.046;13.778;2023-10-31T05:56:29;1.50;;;1.40;;
23129;SDS011;11734;51.046;13.778;2023-10-31T05:58:56;1.97;;;1.70;;
23129;SDS011;11734;51.046;13.778;2023-10-31T06:01:24;1.77;;;1.50;;
23129;SDS011;11734;51.046;13.778;2023-10-31T06:03:51;1.93;;;1.73;;
23129;SDS011;11734;51.046;13.778;2023-10-31T06:06:18;2.20;;;1.87;;
23129;SDS011;11734;51.046;13.778;2023-10-31T06:08:46;1.43;;;1.33;;
23129;SDS011;11734;51.046;13.778;2023-10-31T06:11:13;1.67;;;1.57;;
23129;SDS011;11734;51.046;13.778;2023-10-31T06:13:42;1.33;;;1.23;;
23129;SDS011;11734;51.046;13.778;2023-10-31T06:16:09;1.40;;;1.30;;
23129;SDS011;11734;51.046;13.778;2023-10-31T06:18:37;1.30;;;1.20;;
23129;SDS011;11734;51.046;13.778;2023-10-31T06:21:06;1.20;;;1.10;;
23129;SDS011;11734;51.046;13.778;2023-10-31T06:23:37;1.30;;;1.20;;
23129;SDS011;11734;51.046;13.778;2023-10-31T06:26:04;2.47;;;1.50;;
23129;SDS011;11734;51.046;13.778;2023-10-31T06:28:32;1.37;;;1.10;;
23129;SDS011;11734;51.046;13.778;2023-10-31T06:31:06;2.10;;;1.30;;
23129;SDS011;11734;51.046;13.778;2023-10-31T06:33:34;2.93;;;1.10;;
23129;SDS011;11734;51.046;13.778;2023-10-31T06:36:02;1.83;;;1.20;;
23129;SDS011;11734;51.046;13.778;2023-10-31T06:38:29;1.30;;;1.20;;
23129;SDS011;11734;51.046;13.778;2023-10-31T06:40:56;0.77;;;0.77;;
23129;SDS011;11734;51.046;13.778;2023-10-31T06:43:24;1.10;;;1.00;;
23129;SDS011;11734;51.046;13.778;2023-10-31T06:45:51;1.03;;;1.00;;
23129;SDS011;11734;51.046;13.778;2023-10-31T06:48:19;1.23;;;0.90;;
23129;SDS011;11734;51.046;13.778;2023-10-31T06:50:46;1.00;;;1.00;;
23129;SDS011;11734;51.046;13.778;2023-10-31T06:53:13;1.00;;;0.80;;
23129;SDS011;11734;51.046;13.778;2023-10-31T06:55:41;0.80;;;0.80;;
23129;SDS011;11734;51.046;13.778;2023-10-31T06:58:08;2.20;;;1.00;;
23129;SDS011;11734;51.046;13.778;2023-10-31T07:00:35;1.37;;;1.27;;
23129;SDS011;11734;51.046;13.778;2023-10-31T07:03:04;1.00;;;1.00;;
23129;SDS011;11734;51.046;13.778;2023-10-31T07:05:35;1.33;;;0.87;;
23129;SDS011;11734;51.046;13.778;2023-10-31T07:08:02;1.30;;;0.97;;
23129;SDS011;11734;51.046;13.778;2023-10-31T07:10:31;1.07;;;1.00;;
23129;SDS011;11734;51.046;13.778;2023-10-31T07:12:59;1.07;;;1.00;;
23129;SDS011;11734;51.046;13.778;2023-10-31T07:15:26;1.17;;;1.07;;
23129;SDS011;11734;51.046;13.778;2023-10-31T07:17:54;1.40;;;1.20;;
23129;SDS011;11734;51.046;13.778;2023-10-31T07:20:21;0.90;;;0.90;;
23129;SDS011;11734;51.046;13.778;2023-10-31T07:22:48;1.30;;;1.00;;
23129;SDS011;11734;51.046;13.778;2023-10-31T07:25:16;0.80;;;0.80;;
23129;SDS011;11734;51.046;13.778;2023-10-31T07:27:43;1.37;;;1.00;;
23129;SDS011;11734;51.046;13.778;2023-10-31T07:30:11;1.03;;;0.93;;
23129;SDS011;11734;51.046;13.778;2023-10-31T07:32:38;0.87;;;0.87;;
23129;SDS011;11734;51.046;13.778;2023-10-31T07:35:06;0.90;;;0.90;;
23129;SDS011;11734;51.046;13.778;2023-10-31T07:37:33;1.00;;;0.80;;
23129;SDS011;11734;51.046;13.778;2023-10-31T07:40:02;0.80;;;0.70;;
23129;SDS011;11734;51.046;13.778;2023-10-31T07:42:30;0.70;;;0.70;;
23129;SDS011;11734;51.046;13.778;2023-10-31T07:44:57;0.60;;;0.60;;
23129;SDS011;11734;51.046;13.778;2023-10-31T07:47:25;1.43;;;0.70;;
23129;SDS011;11734;51.046;13.778;2023-10-31T07:49:52;1.13;;;0.80;;
23129;SDS011;11734;51.046;13.778;2023-10-31T07:52:20;1.40;;;0.90;;
23129;SDS011;11734;51.046;13.778;2023-10-31T07:54:47;0.77;;;0.77;;
23129;SDS011;11734;51.046;13.778;2023-10-31T07:57:15;0.70;;;0.70;;
23129;SDS011;11734;51.046;13.778;2023-10-31T07:59:42;1.77;;;0.87;;
23129;SDS011;11734;51.046;13.778;2023-10-31T08:02:09;0.70;;;0.70;;
23129;SDS011;11734;51.046;13.778;2023-10-31T08:04:37;0.70;;;0.70;;
23129;SDS011;11734;51.046;13.778;2023-10-31T08:07:05;0.70;;;0.70;;
23129;SDS011;11734;51.046;13.778;2023-10-31T08:09:32;0.80;;;0.80;;
23129;SDS011;11734;51.046;13.778;2023-10-31T08:11:59;0.63;;;0.63;;
23129;SDS011;11734;51.046;13.778;2023-10-31T08:14:26;1.80;;;0.80;;
23129;SDS011;11734;51.046;13.778;2023-10-31T08:16:54;1.40;;;0.80;;
23129;SDS011;11734;51.046;13.778;2023-10-31T08:19:21;1.23;;;1.00;;
23129;SDS011;11734;51.046;13.778;2023-10-31T08:21:49;0.70;;;0.70;;
23129;SDS011;11734;51.046;13.778;2023-10-31T08:24:16;0.60;;;0.57;;
23129;SDS011;11734;51.046;13.778;2023-10-31T08:26:44;0.50;;;0.50;;
23129;SDS011;11734;51.046;13.778;2023-10-31T08:29:11;0.83;;;0.83;;
23129;SDS011;11734;51.046;13.778;2023-10-31T08:31:38;0.50;;;0.50;;
23129;SDS011;11734;51.046;13.778;2023-10-31T08:34:05;0.83;;;0.50;;
23129;SDS011;11734;51.046;13.778;2023-10-31T08:36:33;1.13;;;0.70;;
23129;SDS011;11734;51.046;13.778;2023-10-31T08:39:00;0.80;;;0.80;;
23129;SDS011;11734;51.046;13.778;2023-10-31T08:41:28;0.50;;;0.50;;
23129;SDS011;11734;51.046;13.778;2023-10-31T08:43:55;0.50;;;0.50;;
23129;SDS011;11734;51.046;13.778;2023-10-31T08:46:24;0.50;;;0.50;;
23129;SDS011;11734;51.046;13.778;2023-10-31T08:48:51;0.77;;;0.77;;
23129;SDS011;11734;51.046;13.778;2023-10-31T08:51:19;1.50;;;1.40;;
23129;SDS011;11734;51.046;13.778;2023-10-31T08:53:46;2.23;;;0.60;;
23129;SDS011;11734;51.046;13.778;2023-10-31T08:56:14;0.70;;;0.70;;
23129;SDS011;11734;51.046;13.778;2023-10-31T08:58:42;0.47;;;0.47;;
23129;SDS011;11734;51.046;13.778;2023-10-31T09:01:09;0.70;;;0.70;;
23129;SDS011;11734;51.046;13.778;2023-10-31T09:03:37;0.60;;;0.60;;
23129;SDS011;11734;51.046;13.778;2023-10-31T09:06:04;0.30;;;0.30;;
23129;SDS011;11734;51.046;13.778;2023-10-31T09:08:32;2.10;;;0.53;;
23129;SDS011;11734;51.046;13.778;2023-10-31T09:11:00;1.17;;;0.70;;
23129;SDS011;11734;51.046;13.778;2023-10-31T09:13:28;0.60;;;0.50;;
23129;SDS011;11734;51.046;13.778;2023-10-31T09:15:55;0.40;;;0.40;;
23129;SDS011;11734;51.046;13.778;2023-10-31T09:18:22;0.73;;;0.73;;
23129;SDS011;11734;51.046;13.778;2023-10-31T09:20:50;0.63;;;0.63;;
23129;SDS011;11734;51.046;13.778;2023-10-31T09:23:18;0.63;;;0.63;;
23129;SDS011;11734;51.046;13.778;2023-10-31T09:25:46;0.63;;;0.57;;
23129;SDS011;11734;51.046;13.778;2023-10-31T09:28:13;0.50;;;0.50;;
23129;SDS011;11734;51.046;13.778;2023-10-31T09:30:41;1.20;;;0.50;;
23129;SDS011;11734;51.046;13.778;2023-10-31T09:33:11;0.87;;;0.60;;
23129;SDS011;11734;51.046;13.778;2023-10-31T09:35:39;0.73;;;0.73;;
23129;SDS011;11734;51.046;13.778;2023-10-31T09:38:06;1.67;;;0.50;;
23129;SDS011;11734;51.046;13.778;2023-10-31T09:40:35;1.03;;;0.60;;
23129;SDS011;11734;51.046;13.778;2023-10-31T09:43:03;0.80;;;0.80;;
23129;SDS011;11734;51.046;13.778;2023-10-31T09:45:30;1.30;;;0.70;;
23129;SDS011;11734;51.046;13.778;2023-10-31T09:47:58;0.50;;;0.50;;
23129;SDS011;11734;51.046;13.778;2023-10-31T09:50:29;0.60;;;0.60;;
23129;SDS011;11734;51.046;13.778;2023-10-31T09:52:57;0.70;;;0.63;;
23129;SDS011;11734;51.046;13.778;2023-10-31T09:55:26;1.43;;;0.80;;
23129;SDS011;11734;51.046;13.778;2023-10-31T09:57:54;0.40;;;0.40;;
23129;SDS011;11734;51.046;13.778;2023-10-31T10:00:21;0.50;;;0.50;;
23129;SDS011;11734;51.046;13.778;2023-10-31T10:02:49;0.57;;;0.57;;
23129;SDS011;11734;51.046;13.778;2023-10-31T10:05:16;0.60;;;0.60;;
23129;SDS011;11734;51.046;13.778;2023-10-31T10:07:45;0.77;;;0.77;;
23129;SDS011;11734;51.046;13.778;2023-10-31T10:10:12;0.60;;;0.60;;
23129;SDS011;11734;51.046;13.778;2023-10-31T10:12:42;0.60;;;0.60;;
23129;SDS011;11734;51.046;13.778;2023-10-31T10:15:10;0.40;;;0.40;;
23129;SDS011;11734;51.046;13.778;2023-10-31T10:17:38;0.60;;;0.60;;
23129;SDS011;11734;51.046;13.778;2023-10-31T10:20:09;0.80;;;0.80;;
23129;SDS011;11734;51.046;13.778;2023-10-31T10:22:40;0.70;;;0.70;;
23129;SDS011;11734;51.046;13.778;2023-10-31T10:25:13;0.90;;;0.90;;
23129;SDS011;11734;51.046;13.778;2023-10-31T10:27:42;0.70;;;0.70;;
23129;SDS011;11734;51.046;13.778;2023-10-31T10:30:09;0.70;;;0.70;;
23129;SDS011;11734;51.046;13.778;2023-10-31T10:32:37;0.80;;;0.80;;
23129;SDS011;11734;51.046;13.778;2023-10-31T10:35:05;1.00;;;0.50;;
23129;SDS011;11734;51.046;13.778;2023-10-31T10:37:32;0.50;;;0.50;;
23129;SDS011;11734;51.046;13.778;2023-10-31T10:40:02;1.23;;;0.47;;
23129;SDS011;11734;51.046;13.778;2023-10-31T10:42:32;0.40;;;0.40;;
23129;SDS011;11734;51.046;13.778;2023-10-31T10:45:03;0.50;;;0.50;;
23129;SDS011;11734;51.046;13.778;2023-10-31T10:47:32;0.73;;;0.47;;
23129;SDS011;11734;51.046;13.778;2023-10-31T10:50:00;0.60;;;0.50;;
23129;SDS011;11734;51.046;13.778;2023-10-31T10:52:42;0.80;;;0.60;;
23129;SDS011;11734;51.046;13.778;2023-10-31T10:55:16;0.53;;;0.53;;
23129;SDS011;11734;51.046;13.778;2023-10-31T11:00:15;0.80;;;0.80;;
23129;SDS011;11734;51.046;13.778;2023-10-31T11:02:43;0.50;;;0.50;;
23129;SDS011;11734;51.046;13.778;2023-10-31T11:05:12;0.60;;;0.60;;
23129;SDS011;11734;51.046;13.778;2023-10-31T11:07:40;0.60;;;0.60;;
23129;SDS011;11734;51.046;13.778;2023-10-31T11:10:07;0.80;;;0.77;;
23129;SDS011;11734;51.046;13.778;2023-10-31T11:12:35;0.73;;;0.73;;
23129;SDS011;11734;51.046;13.778;2023-10-31T11:15:03;0.77;;;0.77;;
23129;SDS011;11734;51.046;13.778;2023-10-31T11:17:31;0.60;;;0.60;;
23129;SDS011;11734;51.046;13.778;2023-10-31T11:19:59;0.77;;;0.77;;
23129;SDS011;11734;51.046;13.778;2023-10-31T11:22:37;0.60;;;0.60;;
23129;SDS011;11734;51.046;13.778;2023-10-31T11:25:06;0.30;;;0.30;;
23129;SDS011;11734;51.046;13.778;2023-10-31T11:27:41;0.43;;;0.43;;
23129;SDS011;11734;51.046;13.778;2023-10-31T11:30:30;0.80;;;0.80;;
23129;SDS011;11734;51.046;13.778;2023-10-31T11:33:00;0.73;;;0.50;;
23129;SDS011;11734;51.046;13.778;2023-10-31T11:35:32;1.73;;;0.50;;
23129;SDS011;11734;51.046;13.778;2023-10-31T11:38:01;0.60;;;0.60;;
23129;SDS011;11734;51.046;13.778;2023-10-31T11:40:30;0.60;;;0.60;;
23129;SDS011;11734;51.046;13.778;2023-10-31T11:43:02;0.67;;;0.67;;
23129;SDS011;11734;51.046;13.778;2023-10-31T11:47:57;0.50;;;0.50;;
23129;SDS011;11734;51.046;13.778;2023-10-31T11:50:25;0.40;;;0.40;;
23129;SDS011;11734;51.046;13.778;2023-10-31T11:53:02;1.53;;;0.67;;
23129;SDS011;11734;51.046;13.778;2023-10-31T11:55:32;0.40;;;0.40;;
23129;SDS011;11734;51.046;13.778;2023-10-31T11:58:13;0.30;;;0.30;;
23129;SDS011;11734;51.046;13.778;2023-10-31T12:00:41;0.67;;;0.67;;
23129;SDS011;11734;51.046;13.778;2023-10-31T12:03:09;0.60;;;0.60;;
23129;SDS011;11734;51.046;13.778;2023-10-31T12:05:36;1.13;;;0.60;;
23129;SDS011;11734;51.046;13.778;2023-10-31T12:08:04;0.50;;;0.50;;
23129;SDS011;11734;51.046;13.778;2023-10-31T12:10:31;2.27;;;0.60;;
23129;SDS011;11734;51.046;13.778;2023-10-31T12:12:58;0.73;;;0.73;;
23129;SDS011;11734;51.046;13.778;2023-10-31T12:15:26;1.03;;;0.80;;
23129;SDS011;11734;51.046;13.778;2023-10-31T12:17:57;0.67;;;0.60;;
23129;SDS011;11734;51.046;13.778;2023-10-31T12:20:25;0.80;;;0.70;;
23129;SDS011;11734;51.046;13.778;2023-10-31T12:23:02;0.97;;;0.70;;
23129;SDS011;11734;51.046;13.778;2023-10-31T12:25:30;0.70;;;0.70;;
23129;SDS011;11734;51.046;13.778;2023-10-31T12:28:02;1.37;;;0.83;;
23129;SDS011;11734;51.046;13.778;2023-10-31T12:30:30;0.67;;;0.67;;
23129;SDS011;11734;51.046;13.778;2023-10-31T12:32:57;0.70;;;0.70;;
23129;SDS011;11734;51.046;13.778;2023-10-31T12:35:25;0.87;;;0.80;;
23129;SDS011;11734;51.046;13.778;2023-10-31T12:37:53;0.70;;;0.70;;
23129;SDS011;11734;51.046;13.778;2023-10-31T12:40:22;0.73;;;0.73;;
23129;SDS011;11734;51.046;13.778;2023-10-31T12:42:49;1.40;;;1.20;;
23129;SDS011;11734;51.046;13.778;2023-10-31T12:45:17;1.20;;;1.10;;
23129;SDS011;11734;51.046;13.778;2023-10-31T12:47:46;7.23;;;5.20;;
23129;SDS011;11734;51.046;13.778;2023-10-31T12:50:27;2.60;;;2.07;;
23129;SDS011;11734;51.046;13.778;2023-10-31T12:52:55;0.97;;;0.87;;
23129;SDS011;11734;51.046;13.778;2023-10-31T12:55:26;0.80;;;0.80;;
23129;SDS011;11734;51.046;13.778;2023-10-31T12:57:55;1.60;;;1.50;;
23129;SDS011;11734;51.046;13.778;2023-10-31T13:00:25;0.93;;;0.60;;
23129;SDS011;11734;51.046;13.778;2023-10-31T13:03:04;1.10;;;0.80;;
23129;SDS011;11734;51.046;13.778;2023-10-31T13:05:32;0.50;;;0.50;;
23129;SDS011;11734;51.046;13.778;2023-10-31T13:08:00;1.23;;;0.60;;
23129;SDS011;11734;51.046;13.778;2023-10-31T13:10:32;0.53;;;0.53;;
23129;SDS011;11734;51.046;13.778;2023-10-31T13:13:00;0.80;;;0.80;;
23129;SDS011;11734;51.046;13.778;2023-10-31T13:15:27;1.30;;;0.80;;
23129;SDS011;11734;51.046;13.778;2023-10-31T13:17:55;0.93;;;0.90;;
23129;SDS011;11734;51.046;13.778;2023-10-31T13:20:23;0.67;;;0.67;;
23129;SDS011;11734;51.046;13.778;2023-10-31T13:22:51;0.80;;;0.80;;
23129;SDS011;11734;51.046;13.778;2023-10-31T13:25:18;0.90;;;0.87;;
23129;SDS011;11734;51.046;13.778;2023-10-31T13:27:46;1.00;;;0.80;;
23129;SDS011;11734;51.046;13.778;2023-10-31T13:30:17;1.07;;;0.90;;
23129;SDS011;11734;51.046;13.778;2023-10-31T13:32:45;0.90;;;0.90;;
23129;SDS011;11734;51.046;13.778;2023-10-31T13:35:12;1.93;;;1.07;;
23129;SDS011;11734;51.046;13.778;2023-10-31T13:37:41;0.90;;;0.90;;
23129;SDS011;11734;51.046;13.778;2023-10-31T13:40:08;1.30;;;1.13;;
23129;SDS011;11734;51.046;13.778;2023-10-31T13:42:36;0.80;;;0.80;;
23129;SDS011;11734;51.046;13.778;2023-10-31T13:45:03;1.47;;;0.87;;
23129;SDS011;11734;51.046;13.778;2023-10-31T13:47:33;0.80;;;0.80;;
23129;SDS011;11734;51.046;13.778;2023-10-31T13:50:00;0.70;;;0.70;;
23129;SDS011;11734;51.046;13.778;2023-10-31T13:52:28;0.63;;;0.63;;
23129;SDS011;11734;51.046;13.778;2023-10-31T13:54:55;0.70;;;0.70;;
23129;SDS011;11734;51.046;13.778;2023-10-31T13:57:23;0.90;;;0.90;;
23129;SDS011;11734;51.046;13.778;2023-10-31T13:59:50;0.73;;;0.60;;
23129;SDS011;11734;51.046;13.778;2023-10-31T14:02:17;0.73;;;0.73;;
23129;SDS011;11734;51.046;13.778;2023-10-31T14:04:45;0.93;;;0.70;;
23129;SDS011;11734;51.046;13.778;2023-10-31T14:07:14;0.60;;;0.60;;
23129;SDS011;11734;51.046;13.778;2023-10-31T14:09:45;0.73;;;0.73;;
23129;SDS011;11734;51.046;13.778;2023-10-31T14:12:14;2.03;;;0.77;;
23129;SDS011;11734;51.046;13.778;2023-10-31T14:14:42;0.83;;;0.80;;
23129;SDS011;11734;51.046;13.778;2023-10-31T14:17:09;0.70;;;0.70;;
23129;SDS011;11734;51.046;13.778;2023-10-31T14:19:37;0.83;;;0.83;;
23129;SDS011;11734;51.046;13.778;2023-10-31T14:22:07;0.70;;;0.70;;
23129;SDS011;11734;51.046;13.778;2023-10-31T14:24:34;0.90;;;0.90;;
23129;SDS011;11734;51.046;13.778;2023-10-31T14:27:02;1.10;;;1.00;;
23129;SDS011;11734;51.046;13.778;2023-10-31T14:29:29;0.90;;;0.90;;
23129;SDS011;11734;51.046;13.778;2023-10-31T14:31:57;1.30;;;1.20;;
23129;SDS011;11734;51.046;13.778;2023-10-31T14:34:24;1.27;;;1.17;;
23129;SDS011;11734;51.046;13.778;2023-10-31T14:36:52;1.20;;;1.10;;
23129;SDS011;11734;51.046;13.778;2023-10-31T14:39:19;1.47;;;1.20;;
23129;SDS011;11734;51.046;13.778;2023-10-31T14:41:47;1.13;;;1.07;;
23129;SDS011;11734;51.046;13.778;2023-10-31T14:44:15;0.90;;;0.90;;